Time;durP1;ratioP1;P1;durP2;ratioP2;P2;SDS_P1;SDS_P2;PMS_P1;PMS_P2;Temp;Humidity;BMP_temperature;BMP_pressure;BME280_temperature;BME280_humidity;BME280_pressure;Samples;Min_cycle;Max_cycle;Signal;HPM_P1;HPM_P2
2022/11/17 09:55:42;;;;;;;8.23;4.50;;;;;;;;;;4958250;28;20051;-76
2022/11/17 09:58:16;;;;;;;5.28;4.80;;;;;;;;;;4977221;28;20093;-81
2022/11/17 10:00:47;;;;;;;4.78;4.38;;;;;;;;;;4977694;28;20082;-82
2022/11/17 10:03:35;;;;;;;4.50;4.10;;;;;;;;;;4996715;28;20034;-81
2022/11/17 10:06:16;;;;;;;4.50;4.10;;;;;;;;;;4997578;28;20030;-88
2022/11/17 10:09:08;;;;;;;4.90;4.50;;;;;;;;;;4997259;28;20030;-82
2022/11/17 10:11:37;;;;;;;6.78;4.22;;;;;;;;;;4996017;28;20038;-80
2022/11/17 10:14:09;;;;;;;4.60;4.18;;;;;;;;;;4979308;28;20066;-86
2022/11/17 10:16:37;;;;;;;6.47;4.40;;;;;;;;;;5000012;28;20046;-94
2022/11/17 10:19:14;;;;;;;4.82;4.22;;;;;;;;;;4996993;23;20046;-86
2022/11/17 10:22:03;;;;;;;4.65;4.05;;;;;;;;;;5004374;28;20130;-95
2022/11/17 10:24:49;;;;;;;4.45;3.78;;;;;;;;;;4998922;28;20037;-91
2022/11/17 10:27:19;;;;;;;3.95;3.55;;;;;;;;;;4997446;28;20035;-95
2022/11/17 10:30:06;;;;;;;4.32;3.70;;;;;;;;;;4996909;28;20418;-93
2022/11/17 10:32:36;;;;;;;4.40;3.88;;;;;;;;;;4998935;28;20022;-96
2022/11/17 10:35:25;;;;;;;3.47;3.17;;;;;;;;;;5000973;28;20029;-91
2022/11/17 10:38:24;;;;;;;4.70;3.83;;;;;;;;;;5000873;28;20519;-93
2022/11/17 10:40:52;;;;;;;3.78;3.35;;;;;;;;;;4968841;28;20089;-92
2022/11/17 10:43:28;;;;;;;5.93;3.38;;;;;;;;;;4996926;28;20461;-92
2022/11/17 10:45:53;;;;;;;3.65;3.35;;;;;;;;;;4997502;28;20531;-92
2022/11/17 10:48:22;;;;;;;4.88;3.08;;;;;;;;;;4996405;28;20034;-92
2022/11/17 10:50:58;;;;;;;5.15;3.63;;;;;;;;;;4996489;28;20069;-93
2022/11/17 10:53:28;;;;;;;3.88;3.58;;;;;;;;;;4996858;28;20030;-93
2022/11/17 10:56:20;;;;;;;4.25;3.85;;;;;;;;;;4979471;28;20026;-91
2022/11/17 10:59:07;;;;;;;3.65;3.35;;;;;;;;;;4996335;28;20050;-91
2022/11/17 11:01:37;;;;;;;3.45;3.10;;;;;;;;;;4996183;28;20027;-88
2022/11/17 11:04:05;;;;;;;3.22;2.92;;;;;;;;;;4995185;28;20565;-89
2022/11/17 11:06:33;;;;;;;3.22;3.00;;;;;;;;;;4995844;28;20031;-88
2022/11/17 11:09:13;;;;;;;3.88;3.58;;;;;;;;;;4978205;28;20026;-92
2022/11/17 11:11:53;;;;;;;3.78;3.38;;;;;;;;;;4995290;28;20049;-81
2022/11/17 11:14:39;;;;;;;4.43;3.70;;;;;;;;;;4995308;28;20072;-85
2022/11/17 11:17:13;;;;;;;3.75;3.20;;;;;;;;;;4995003;28;20034;-80
2022/11/17 11:19:40;;;;;;;4.28;3.47;;;;;;;;;;4994957;28;20379;-80
2022/11/17 11:22:33;;;;;;;3.60;3.08;;;;;;;;;;4995084;28;20038;-83
2022/11/17 11:25:25;;;;;;;3.20;2.92;;;;;;;;;;4994940;28;20046;-82
2022/11/17 11:28:10;;;;;;;4.53;3.58;;;;;;;;;;4994973;28;20051;-82
2022/11/17 11:30:46;;;;;;;3.50;3.20;;;;;;;;;;4995149;28;20022;-83
2022/11/17 11:33:20;;;;;;;3.42;3.13;;;;;;;;;;4977359;28;20081;-86
2022/11/17 11:36:27;;;;;;;3.67;3.38;;;;;;;;;;4994778;28;20027;-79
2022/11/17 11:39:14;;;;;;;6.63;3.70;;;;;;;;;;4962102;28;20169;-78
2022/11/17 11:41:47;;;;;;;3.58;3.28;;;;;;;;;;4994604;28;20069;-79
2022/11/17 11:44:36;;;;;;;3.60;3.25;;;;;;;;;;4994686;28;20114;-80
2022/11/17 11:47:36;;;;;;;4.10;3.30;;;;;;;;;;4933066;28;20061;-78
2022/11/17 11:50:23;;;;;;;3.65;3.35;;;;;;;;;;4994675;28;20265;-77
2022/11/17 11:53:29;;;;;;;3.58;2.92;;;;;;;;;;4977120;28;20113;-82
2022/11/17 11:56:09;;;;;;;3.60;3.30;;;;;;;;;;4980934;28;20389;-82
2022/11/17 11:58:37;;;;;;;;;;;;;;;;;;4995135;28;20437;-82
2022/11/17 12:01:08;;;;;;;3.53;3.22;;;;;;;;;;4994219;28;20004;-82
2022/11/17 12:04:07;;;;;;;3.90;3.50;;;;;;;;;;4976896;28;20077;-81
2022/11/17 12:06:52;;;;;;;4.03;3.20;;;;;;;;;;4977349;28;20054;-82
2022/11/17 12:09:43;;;;;;;3.78;3.40;;;;;;;;;;4994376;28;20058;-82
2022/11/17 12:12:15;;;;;;;4.18;3.22;;;;;;;;;;4994172;28;20461;-82
2022/11/17 12:15:12;;;;;;;5.72;3.40;;;;;;;;;;4994631;28;20029;-82
2022/11/17 12:18:10;;;;;;;3.40;2.85;;;;;;;;;;4993497;28;20390;-83
2022/11/17 12:20:35;;;;;;;3.03;2.80;;;;;;;;;;4994008;28;20039;-82
2022/11/17 12:23:16;;;;;;;3.60;3.30;;;;;;;;;;4993936;28;20084;-83
2022/11/17 12:25:46;;;;;;;3.15;2.90;;;;;;;;;;4994099;28;20072;-82
2022/11/17 12:28:38;;;;;;;2.92;2.72;;;;;;;;;;4994160;28;20080;-82
2022/11/17 12:31:08;;;;;;;2.80;2.60;;;;;;;;;;4993995;28;20034;-83
2022/11/17 12:33:51;;;;;;;;;;;;;;;;;;4977065;28;20027;-85
2022/11/17 12:36:23;;;;;;;3.10;2.83;;;;;;;;;;4994070;28;20369;-84
2022/11/17 12:38:52;;;;;;;3.30;3.00;;;;;;;;;;4994159;28;20030;-84
2022/11/17 12:41:45;;;;;;;4.03;3.22;;;;;;;;;;4994216;28;20034;-84
2022/11/17 12:44:36;;;;;;;3.78;3.10;;;;;;;;;;4994163;28;20026;-82
2022/11/17 12:47:15;;;;;;;3.63;3.33;;;;;;;;;;4993878;28;20563;-84
2022/11/17 12:49:44;;;;;;;3.35;2.85;;;;;;;;;;4976459;28;20030;-84
2022/11/17 17:25:23;;;;;;;5.82;5.10;;;;;;;;;;4952609;29;20078;-83
2022/11/17 17:27:49;;;;;;;5.22;4.45;;;;;;;;;;4943592;29;20032;-88
2022/11/17 17:30:14;;;;;;;4.90;4.40;;;;;;;;;;4958539;29;20066;-88
2022/11/17 17:32:40;;;;;;;4.95;4.45;;;;;;;;;;4958372;28;20039;-89
2022/11/17 17:35:05;;;;;;;5.40;4.90;;;;;;;;;;4960517;29;20031;-88
2022/11/17 17:37:32;;;;;;;4.97;4.50;;;;;;;;;;4958369;29;20055;-87
2022/11/17 17:39:57;;;;;;;7.38;5.00;;;;;;;;;;4958537;29;20083;-89
2022/11/17 17:42:22;;;;;;;;;;;;;;;;;;4941144;29;20119;-89
2022/11/17 17:44:48;;;;;;;;;;;;;;;;;;4960883;29;20001;-88
2022/11/17 17:47:13;;;;;;;;;;;;;;;;;;4942288;29;19910;-87
2022/11/17 17:49:38;;;;;;;;;;;;;;;;;;4958893;29;19937;-87
2022/11/17 17:52:04;;;;;;;;;;;;;;;;;;4941718;29;19921;-89
2022/11/17 17:54:30;;;;;;;;;;;;;;;;;;4941580;29;20001;-88
2022/11/17 17:56:56;;;;;;;;;;;;;;;;;;4941595;29;19973;-89
2022/11/17 17:59:22;;;;;;;;;;;;;;;;;;4958532;29;19911;-88
2022/11/17 18:01:48;;;;;;;;;;;;;;;;;;4940869;29;19921;-87
2022/11/17 18:04:13;;;;;;;;;;;;;;;;;;4941166;29;19985;-88
